Time;durP1;ratioP1;P1;durP2;ratioP2;P2;SDS_P1;SDS_P2;PMS_P1;PMS_P2;Temp;Humidity;BMP_temperature;BMP_pressure;BME280_temperature;BME280_humidity;BME280_pressure;Samples;Min_cycle;Max_cycle;Signal;HPM_P1;HPM_P2
2021/08/29 00:00:30;;;;;;;7.60;2.30;;;;;;;14.05;78.33;100132.23;112249;1203;22752;-60
2021/08/29 00:03:12;;;;;;;9.00;2.90;;;;;;;14.02;78.27;100126.16;112216;1203;24030;-60
2021/08/29 00:05:42;;;;;;;10.10;2.70;;;;;;;14.01;78.27;100127.33;112268;1203;22450;-61
2021/08/29 00:08:16;;;;;;;8.20;3.40;;;;;;;13.99;78.64;100132.07;112242;1203;22448;-60
2021/08/29 00:10:49;;;;;;;9.70;2.60;;;;;;;14.00;78.66;100130.48;112350;1202;22455;-61
2021/08/29 00:13:41;;;;;;;9.60;3.00;;;;;;;13.99;78.66;100132.57;112345;1202;22453;-61
2021/08/29 00:16:11;;;;;;;10.50;2.50;;;;;;;13.95;78.53;100128.48;112194;1202;22532;-59
2021/08/29 00:18:47;;;;;;;12.50;2.50;;;;;;;13.94;78.65;100133.17;112243;1202;24127;-59
2021/08/29 00:21:18;;;;;;;10.20;2.90;;;;;;;13.91;78.56;100129.83;112330;1202;22488;-59
2021/08/29 00:23:52;;;;;;;9.60;2.70;;;;;;;13.89;78.56;100127.34;112321;1202;25545;-59
2021/08/29 00:26:25;;;;;;;9.50;2.90;;;;;;;13.85;78.67;100125.23;112266;1203;24061;-62
2021/08/29 00:28:58;;;;;;;9.00;2.80;;;;;;;13.83;78.73;100124.27;113155;1202;22469;-61
2021/08/29 00:31:29;;;;;;;8.70;2.60;;;;;;;13.82;78.65;100124.91;113061;1203;22468;-60
2021/08/29 00:34:02;;;;;;;7.50;2.80;;;;;;;13.80;78.65;100120.52;112206;1202;22450;-60
2021/08/29 00:36:54;;;;;;;8.70;2.40;;;;;;;13.78;78.70;100118.01;112203;1203;22641;-61
2021/08/29 00:39:27;;;;;;;8.80;2.20;;;;;;;13.75;78.57;100118.45;112298;1203;22515;-61
2021/08/29 00:41:58;;;;;;;11.00;3.10;;;;;;;13.72;78.88;100115.09;112274;1202;24079;-60
2021/08/29 00:44:30;;;;;;;8.70;2.60;;;;;;;13.70;78.87;100114.55;112283;1203;25085;-61
2021/08/29 00:47:00;;;;;;;11.10;3.60;;;;;;;13.68;78.98;100112.55;112257;1203;24200;-61
2021/08/29 00:49:32;;;;;;;9.40;2.80;;;;;;;13.66;79.00;100109.09;112251;1202;25356;-60
2021/08/29 00:52:05;;;;;;;8.70;3.10;;;;;;;13.64;79.05;100112.00;112370;1202;24086;-61
2021/08/29 00:54:38;;;;;;;9.10;3.00;;;;;;;13.62;78.95;100111.82;112331;1202;22812;-61
2021/08/29 00:57:11;;;;;;;10.40;3.10;;;;;;;13.61;79.35;100108.14;112253;1203;22403;-61
2021/08/29 00:59:44;;;;;;;10.30;3.50;;;;;;;13.59;79.41;100108.79;112344;1202;22453;-60
2021/08/29 01:02:20;;;;;;;10.40;3.40;;;;;;;13.56;79.53;100110.56;112295;1203;22447;-60
2021/08/29 01:04:59;;;;;;;10.00;3.50;;;;;;;13.52;79.66;100107.29;112324;1202;22436;-62
2021/08/29 01:07:37;;;;;;;13.20;3.50;;;;;;;13.49;79.66;100109.88;112605;1202;22501;-61
2021/08/29 01:10:13;;;;;;;10.20;3.30;;;;;;;13.47;79.79;100112.25;112166;1202;24176;-60
2021/08/29 01:12:48;;;;;;;8.70;2.90;;;;;;;13.45;79.76;100112.29;112204;1203;22454;-60
2021/08/29 01:15:23;;;;;;;8.50;2.90;;;;;;;13.45;79.80;100112.35;112294;1202;25088;-60
2021/08/29 01:17:57;;;;;;;7.40;2.50;;;;;;;13.43;79.76;100113.45;112256;1202;24137;-61
2021/08/29 01:20:38;;;;;;;10.10;3.10;;;;;;;13.39;79.79;100116.55;112375;1202;25008;-62
2021/08/29 01:23:11;;;;;;;10.90;2.40;;;;;;;13.37;79.83;100113.92;112331;1202;22453;-61
2021/08/29 01:25:49;;;;;;;9.40;2.70;;;;;;;13.35;80.01;100120.55;112390;1202;22562;-61
2021/08/29 01:28:23;;;;;;;9.20;2.60;;;;;;;13.34;80.01;100121.86;112239;1202;25240;-61
2021/08/29 01:30:57;;;;;;;9.00;3.00;;;;;;;13.33;79.84;100122.66;112253;1203;22646;-61
2021/08/29 01:33:29;;;;;;;12.60;3.20;;;;;;;13.34;79.82;100121.98;112250;1202;24062;-63
2021/08/29 01:36:03;;;;;;;8.70;3.20;;;;;;;13.33;79.87;100120.17;112369;1203;22457;-59
2021/08/29 01:38:34;;;;;;;11.50;3.20;;;;;;;13.32;79.86;100117.13;112213;1203;24071;-61
2021/08/29 01:41:05;;;;;;;9.60;3.50;;;;;;;13.31;80.04;100114.45;112243;1201;22451;-61
2021/08/29 01:43:36;;;;;;;11.50;3.20;;;;;;;13.30;80.14;100111.40;112283;1202;25216;-62
2021/08/29 01:46:08;;;;;;;12.90;3.60;;;;;;;13.30;80.16;100115.33;112251;1203;24136;-60
2021/08/29 01:48:51;;;;;;;11.40;3.60;;;;;;;13.29;80.04;100114.34;112273;1203;22445;-64
2021/08/29 01:51:22;;;;;;;12.50;4.10;;;;;;;13.30;80.14;100114.56;112264;1202;22451;-62
2021/08/29 01:53:57;;;;;;;12.00;3.90;;;;;;;13.30;80.20;100117.46;112244;1202;22474;-61
2021/08/29 01:56:28;;;;;;;12.20;4.20;;;;;;;13.31;80.26;100121.70;112264;1203;23496;-61
2021/08/29 01:58:59;;;;;;;10.50;4.00;;;;;;;13.31;80.32;100122.41;112268;1202;25390;-61
2021/08/29 02:01:31;;;;;;;12.40;4.30;;;;;;;13.31;80.40;100119.11;112384;1203;23311;-61
2021/08/29 02:04:02;;;;;;;10.60;4.10;;;;;;;13.32;80.41;100120.43;112310;1203;22456;-60
2021/08/29 02:06:40;;;;;;;14.80;4.30;;;;;;;13.31;80.32;100119.91;112223;1203;23602;-61
2021/08/29 02:09:13;;;;;;;12.10;4.60;;;;;;;13.31;80.48;100121.54;112323;1202;24042;-60
2021/08/29 02:11:48;;;;;;;13.50;4.60;;;;;;;13.30;80.51;100118.38;112280;1203;25055;-61
2021/08/29 02:14:26;;;;;;;11.80;4.10;;;;;;;13.29;80.55;100115.63;112240;1202;25088;-60
2021/08/29 02:16:57;;;;;;;12.50;4.40;;;;;;;13.29;80.57;100114.23;112390;1203;22446;-62
2021/08/29 02:19:34;;;;;;;9.90;3.40;;;;;;;13.27;80.59;100114.89;112458;1202;24111;-61
2021/08/29 02:22:06;;;;;;;10.20;4.00;;;;;;;13.27;80.70;100116.77;112354;1203;24079;-61
2021/08/29 02:24:40;;;;;;;13.80;4.70;;;;;;;13.26;80.67;100115.15;112190;1203;22451;-61
2021/08/29 02:27:12;;;;;;;11.60;4.50;;;;;;;13.25;80.69;100111.91;112276;1203;22453;-59
2021/08/29 02:29:44;;;;;;;13.80;4.50;;;;;;;13.24;80.60;100110.79;112267;1203;22404;-61
2021/08/29 02:32:18;;;;;;;11.60;4.20;;;;;;;13.22;80.71;100107.46;112427;1203;24703;-61
2021/08/29 02:34:50;;;;;;;15.90;5.50;;;;;;;13.21;80.73;100107.35;112396;1202;22475;-60
2021/08/29 02:37:21;;;;;;;12.20;5.00;;;;;;;13.20;80.88;100106.34;112277;1202;23841;-59
2021/08/29 02:39:55;;;;;;;11.80;4.80;;;;;;;13.18;80.95;100106.98;112235;1202;22392;-61
2021/08/29 02:42:29;;;;;;;15.00;5.80;;;;;;;13.18;81.14;100102.04;112324;1202;22431;-60
2021/08/29 02:45:08;;;;;;;15.60;6.50;;;;;;;13.17;81.07;100102.20;112355;1203;22440;-60
2021/08/29 02:47:40;;;;;;;17.60;7.00;;;;;;;13.16;80.97;100096.93;112314;1203;25901;-60
2021/08/29 02:50:12;;;;;;;17.30;6.90;;;;;;;13.16;81.13;100102.66;112317;1202;22535;-60
2021/08/29 02:52:46;;;;;;;15.90;7.20;;;;;;;13.16;81.10;100099.89;112442;1203;22785;-61
2021/08/29 02:55:19;;;;;;;17.70;8.40;;;;;;;13.15;81.58;100097.54;112276;1203;23738;-60
2021/08/29 02:58:01;;;;;;;19.10;8.60;;;;;;;13.15;81.58;100098.71;112190;1203;22474;-61
2021/08/29 03:00:34;;;;;;;16.30;8.30;;;;;;;13.15;81.82;100098.40;112241;1202;25040;-61
2021/08/29 03:03:08;;;;;;;18.00;8.90;;;;;;;13.14;81.63;100096.77;112256;1202;24069;-60
2021/08/29 03:05:42;;;;;;;19.70;9.00;;;;;;;13.14;81.91;100094.58;112342;1203;24208;-61
2021/08/29 03:08:15;;;;;;;16.70;7.90;;;;;;;13.13;81.96;100088.15;112257;1202;22979;-61
2021/08/29 03:10:46;;;;;;;18.90;7.80;;;;;;;13.12;81.83;100091.36;112546;1202;25103;-59
2021/08/29 03:13:18;;;;;;;18.20;7.40;;;;;;;13.12;81.98;100095.44;112260;1202;23685;-62
2021/08/29 03:15:50;;;;;;;15.80;7.00;;;;;;;13.11;81.85;100095.32;112426;1202;25227;-61
2021/08/29 03:18:23;;;;;;;17.80;7.00;;;;;;;13.10;81.70;100093.08;112412;1203;22445;-59
2021/08/29 03:20:55;;;;;;;14.80;6.90;;;;;;;13.08;81.66;100093.58;112239;1202;22453;-60
2021/08/29 03:23:27;;;;;;;14.10;6.50;;;;;;;13.07;81.80;100088.84;112376;1202;25203;-60
2021/08/29 03:25:59;;;;;;;19.50;8.20;;;;;;;13.06;82.15;100086.63;112537;1202;23448;-60
2021/08/29 03:28:42;;;;;;;;;;;;;;;;;;;;;
2021/08/29 03:31:16;;;;;;;14.10;5.90;;;;;;;12.97;82.48;100078.64;112251;1202;25222;-60
2021/08/29 03:33:51;;;;;;;15.70;7.20;;;;;;;12.95;82.53;100074.66;112360;1203;24194;-60
2021/08/29 03:36:30;;;;;;;15.40;6.60;;;;;;;12.93;82.48;100074.59;112409;1203;23119;-61
2021/08/29 03:39:02;;;;;;;17.30;6.60;;;;;;;12.91;82.46;100066.48;113110;1203;22441;-61
2021/08/29 03:41:33;;;;;;;16.80;6.80;;;;;;;12.90;82.59;100068.70;112971;1202;24068;-61
2021/08/29 03:44:07;;;;;;;15.40;6.70;;;;;;;12.90;82.66;100066.33;112369;1202;24112;-62
2021/08/29 03:46:39;;;;;;;16.40;6.90;;;;;;;12.88;82.65;100062.89;112373;1202;22448;-59
2021/08/29 03:49:10;;;;;;;19.00;6.60;;;;;;;12.87;82.70;100056.56;112280;1202;25260;-58
2021/08/29 03:51:42;;;;;;;16.50;6.80;;;;;;;12.86;82.93;100054.88;112435;1203;22450;-61
2021/08/29 03:54:15;;;;;;;18.10;7.60;;;;;;;12.84;82.85;100052.77;112404;1203;22605;-61
2021/08/29 03:56:46;;;;;;;15.50;7.00;;;;;;;12.82;83.09;100060.30;112334;1202;25197;-61
2021/08/29 03:59:19;;;;;;;14.50;7.10;;;;;;;12.81;83.34;100059.58;112541;1203;25203;-59
2021/08/29 04:01:52;;;;;;;15.50;6.20;;;;;;;12.77;83.60;100062.52;112371;1202;24090;-62
2021/08/29 04:04:25;;;;;;;18.70;6.80;;;;;;;12.74;83.85;100065.19;112349;1202;23666;-61
2021/08/29 04:06:59;;;;;;;15.40;6.70;;;;;;;12.72;83.89;100064.77;112327;1203;22810;-60
2021/08/29 04:09:32;;;;;;;18.70;7.00;;;;;;;12.71;84.10;100066.33;112340;1203;22443;-60
2021/08/29 04:12:05;;;;;;;14.40;7.20;;;;;;;12.71;84.01;100065.21;112264;1203;22727;-61
2021/08/29 04:14:37;;;;;;;17.30;7.70;;;;;;;12.72;84.07;100068.04;112398;1203;24899;-61
2021/08/29 04:17:10;;;;;;;14.80;7.80;;;;;;;12.72;84.24;100067.92;112304;1203;22457;-61
2021/08/29 04:19:44;;;;;;;16.40;6.80;;;;;;;12.73;84.22;100068.85;112416;1203;22440;-62
2021/08/29 04:22:17;;;;;;;17.40;8.00;;;;;;;12.73;84.27;100071.02;112384;1202;26328;-60
2021/08/29 04:24:53;;;;;;;19.60;7.80;;;;;;;12.73;84.48;100072.92;112384;1202;22456;-60
2021/08/29 04:27:25;;;;;;;16.40;7.10;;;;;;;12.73;84.51;100071.19;112320;1202;25074;-61
2021/08/29 04:29:58;;;;;;;16.30;7.10;;;;;;;12.74;84.65;100075.21;112474;1203;25732;-61
2021/08/29 04:32:33;;;;;;;17.30;7.20;;;;;;;12.73;84.65;100072.26;112406;1204;25065;-59
2021/08/29 04:35:04;;;;;;;15.70;6.90;;;;;;;12.74;84.72;100076.23;112370;1203;25705;-60
2021/08/29 04:37:36;;;;;;;16.20;6.60;;;;;;;12.75;84.91;100077.83;112422;1203;24880;-61
2021/08/29 04:40:10;;;;;;;18.00;8.20;;;;;;;12.76;84.93;100075.90;112351;1203;22443;-61
2021/08/29 04:42:41;;;;;;;13.80;6.30;;;;;;;12.77;85.05;100081.77;112334;1203;22494;-59
2021/08/29 04:45:13;;;;;;;15.70;7.80;;;;;;;12.78;85.02;100081.77;112366;1203;24160;-60
2021/08/29 04:47:43;;;;;;;15.90;7.40;;;;;;;12.79;85.16;100083.82;112330;1195;22458;-60
2021/08/29 04:50:14;;;;;;;17.60;7.50;;;;;;;12.80;85.14;100085.76;112301;1202;22398;-61
2021/08/29 04:52:45;;;;;;;19.40;7.00;;;;;;;12.81;85.31;100083.53;112310;1203;22443;-59
2021/08/29 04:55:27;;;;;;;16.60;7.40;;;;;;;12.82;85.36;100080.77;112399;1202;24070;-61
2021/08/29 04:57:58;;;;;;;16.90;7.80;;;;;;;12.83;85.53;100087.23;112174;1202;24070;-59
2021/08/29 05:00:28;;;;;;;16.70;7.70;;;;;;;12.84;85.65;100091.34;112252;1202;25763;-60
2021/08/29 05:03:23;;;;;;;16.10;7.80;;;;;;;12.85;85.75;100094.18;112250;1202;24214;-59
2021/08/29 05:05:54;;;;;;;17.30;7.70;;;;;;;12.84;85.71;100096.23;112364;1204;22538;-61
2021/08/29 05:08:45;;;;;;;16.90;7.70;;;;;;;12.86;85.78;100095.27;112255;1203;22445;-61
2021/08/29 05:11:16;;;;;;;16.40;7.80;;;;;;;12.88;85.97;100092.38;112204;1203;22438;-59
2021/08/29 05:13:47;;;;;;;19.60;8.00;;;;;;;12.89;85.90;100092.14;112400;1203;25207;-61
2021/08/29 05:16:18;;;;;;;16.40;7.30;;;;;;;12.90;85.94;100091.49;112347;1203;22613;-61
2021/08/29 05:18:50;;;;;;;17.10;7.60;;;;;;;12.90;86.04;100092.40;112263;1204;22440;-61
2021/08/29 05:21:21;;;;;;;15.30;7.70;;;;;;;12.90;85.96;100097.75;112332;1202;25801;-60
2021/08/29 05:23:52;;;;;;;17.00;7.30;;;;;;;12.91;86.06;100097.86;112250;1203;24455;-59
2021/08/29 05:26:22;;;;;;;17.60;7.80;;;;;;;12.91;86.19;100097.09;112289;1202;22476;-61
2021/08/29 05:28:53;;;;;;;17.90;8.90;;;;;;;12.94;86.01;100095.75;112296;1204;25100;-62
2021/08/29 05:31:24;;;;;;;17.60;8.10;;;;;;;12.98;86.24;100099.48;112081;1202;22443;-62
2021/08/29 05:33:55;;;;;;;18.30;8.30;;;;;;;13.00;86.22;100103.17;112223;1204;22452;-62
2021/08/29 05:36:25;;;;;;;18.60;8.40;;;;;;;13.04;86.30;100098.98;112254;1203;24101;-60
2021/08/29 05:38:56;;;;;;;17.40;8.40;;;;;;;13.06;86.35;100101.15;112266;1202;25048;-62
2021/08/29 05:41:27;;;;;;;19.10;8.20;;;;;;;13.07;86.34;100097.95;112125;1202;22452;-61
2021/08/29 05:43:59;;;;;;;18.20;8.00;;;;;;;13.09;86.45;100099.03;112406;1203;22909;-61
2021/08/29 05:46:30;;;;;;;16.70;8.20;;;;;;;13.11;86.44;100103.17;112512;1202;24081;-61
2021/08/29 05:49:01;;;;;;;16.40;8.10;;;;;;;13.13;86.32;100101.45;112317;1203;24034;-61
2021/08/29 05:51:33;;;;;;;15.10;7.40;;;;;;;13.16;86.47;100108.34;112209;1203;22439;-62
2021/08/29 05:54:04;;;;;;;20.30;8.00;;;;;;;13.18;86.47;100108.06;112297;1202;25061;-62
2021/08/29 05:56:36;;;;;;;18.20;8.10;;;;;;;13.19;86.42;100105.56;112158;1203;25184;-62
2021/08/29 05:59:07;;;;;;;18.00;8.70;;;;;;;13.21;86.51;100105.59;112062;1204;25184;-62
2021/08/29 06:01:41;;;;;;;18.60;8.00;;;;;;;13.24;86.47;100102.89;112180;1204;22439;-61
2021/08/29 06:04:12;;;;;;;15.90;7.40;;;;;;;13.26;86.35;100102.40;112168;1203;24077;-61
2021/08/29 06:06:44;;;;;;;15.40;7.40;;;;;;;13.30;86.43;100104.36;112342;1203;22445;-60
2021/08/29 06:09:15;;;;;;;17.60;7.80;;;;;;;13.33;86.66;100107.85;112043;1203;22646;-61
2021/08/29 06:11:46;;;;;;;18.00;8.50;;;;;;;13.35;86.46;100108.77;112246;1203;22466;-61
2021/08/29 06:14:18;;;;;;;17.50;8.60;;;;;;;13.36;86.42;100103.17;112109;1204;25616;-63
2021/08/29 06:16:49;;;;;;;19.50;9.10;;;;;;;13.40;86.62;100100.08;112191;1202;24638;-62
2021/08/29 06:19:22;;;;;;;17.90;8.10;;;;;;;13.42;86.31;100098.31;111762;1203;22440;-61
2021/08/29 06:21:53;;;;;;;17.80;7.50;;;;;;;13.46;86.33;100097.88;111778;1203;22486;-61
2021/08/29 06:24:25;;;;;;;14.40;6.70;;;;;;;13.49;86.46;100100.54;111717;1203;24187;-61
2021/08/29 06:26:56;;;;;;;17.00;7.90;;;;;;;13.51;86.54;100100.03;111812;1203;22440;-61
2021/08/29 06:29:27;;;;;;;18.90;8.20;;;;;;;13.55;86.40;100099.50;111707;1202;22453;-60
2021/08/29 06:31:58;;;;;;;18.30;9.70;;;;;;;13.59;86.52;100100.79;111779;1202;22563;-59
2021/08/29 06:34:30;;;;;;;19.50;9.50;;;;;;;13.63;86.11;100095.81;111663;1203;24066;-59
2021/08/29 06:37:01;;;;;;;22.50;13.50;;;;;;;13.69;86.42;100097.27;111867;1206;23804;-60
2021/08/29 06:39:32;;;;;;;26.30;15.80;;;;;;;13.74;86.23;100098.55;111813;1202;24209;-59
2021/08/29 06:42:04;;;;;;;31.10;19.60;;;;;;;13.78;86.06;100096.42;111553;1204;22456;-59
2021/08/29 06:44:35;;;;;;;27.20;17.60;;;;;;;13.82;86.30;100093.54;111415;1204;25185;-60
2021/08/29 06:47:07;;;;;;;28.00;17.70;;;;;;;13.87;85.99;100090.18;111760;1204;24352;-60
2021/08/29 06:49:38;;;;;;;30.60;20.80;;;;;;;13.92;86.25;100091.11;111790;1204;25286;-58
2021/08/29 06:52:09;;;;;;;15.80;8.70;;;;;;;13.99;86.26;100093.55;111600;1203;22457;-60
2021/08/29 06:54:40;;;;;;;15.70;7.80;;;;;;;14.05;85.86;100091.98;111994;1206;22462;-59
2021/08/29 06:57:11;;;;;;;14.90;6.60;;;;;;;14.09;85.80;100087.90;112047;1203;24209;-58
2021/08/29 06:59:42;;;;;;;16.90;8.40;;;;;;;14.15;85.81;100085.40;111999;1204;22495;-59
2021/08/29 07:02:13;;;;;;;15.60;7.10;;;;;;;14.23;85.71;100086.86;111463;1202;22446;-59
2021/08/29 07:04:44;;;;;;;14.30;7.10;;;;;;;14.32;85.76;100084.77;111442;1205;22421;-58
2021/08/29 07:07:16;;;;;;;17.80;7.00;;;;;;;14.39;85.35;100087.41;111473;1204;22475;-58
2021/08/29 07:09:47;;;;;;;14.70;6.70;;;;;;;14.44;85.31;100084.01;111368;1203;25179;-59
2021/08/29 07:12:18;;;;;;;15.70;7.20;;;;;;;14.48;85.01;100080.83;111757;1203;22456;-60
2021/08/29 07:14:49;;;;;;;14.50;7.60;;;;;;;14.49;84.90;100082.36;111551;1203;22462;-64
2021/08/29 07:17:20;;;;;;;14.90;7.00;;;;;;;14.50;84.82;100078.02;111789;1203;24069;-61
2021/08/29 07:19:51;;;;;;;15.90;7.50;;;;;;;14.55;85.32;100073.02;111503;1202;22453;-60
2021/08/29 07:22:22;;;;;;;14.20;6.60;;;;;;;14.60;85.18;100070.63;111536;1203;22456;-58
2021/08/29 07:24:53;;;;;;;18.10;7.40;;;;;;;14.65;84.91;100072.83;112047;1203;24070;-59
2021/08/29 07:27:24;;;;;;;14.30;7.10;;;;;;;14.71;84.91;100074.50;111541;1205;26416;-57
2021/08/29 07:29:56;;;;;;;15.00;7.00;;;;;;;14.78;84.80;100068.98;111811;1204;22545;-59
2021/08/29 07:32:28;;;;;;;18.10;7.20;;;;;;;14.85;84.78;100068.63;111995;1204;22507;-57
2021/08/29 07:34:59;;;;;;;15.10;6.60;;;;;;;14.93;84.68;100071.83;112025;1205;23616;-58
2021/08/29 07:37:30;;;;;;;15.10;6.20;;;;;;;15.04;84.51;100074.63;112005;1204;22561;-57
2021/08/29 07:40:01;;;;;;;13.50;6.90;;;;;;;15.11;84.35;100070.57;111542;1204;22456;-56
2021/08/29 07:42:35;;;;;;;16.90;7.20;;;;;;;15.18;84.30;100069.48;111485;1202;24212;-55
2021/08/29 07:45:07;;;;;;;14.30;6.70;;;;;;;15.25;84.32;100068.19;111665;1204;25165;-60
2021/08/29 07:47:39;;;;;;;13.30;5.80;;;;;;;15.32;84.00;100073.73;111643;1202;25185;-58
2021/08/29 07:50:11;;;;;;;13.40;5.70;;;;;;;15.35;83.69;100073.73;111696;1205;24068;-56
2021/08/29 07:52:42;;;;;;;16.00;6.00;;;;;;;15.40;83.64;100071.06;111674;1203;25084;-59
2021/08/29 07:55:13;;;;;;;13.20;5.50;;;;;;;15.44;83.76;100071.41;111536;1204;22433;-59
2021/08/29 07:57:44;;;;;;;14.60;7.20;;;;;;;15.49;83.42;100070.65;111754;1202;22464;-57
2021/08/29 08:00:17;;;;;;;13.40;6.20;;;;;;;15.51;83.35;100066.80;111477;1202;25062;-59
2021/08/29 08:02:48;;;;;;;14.30;6.40;;;;;;;15.56;83.20;100063.98;114823;1202;25257;-58
2021/08/29 08:05:19;;;;;;;17.20;6.10;;;;;;;15.62;83.13;100062.81;111645;1203;22446;-58
2021/08/29 08:07:50;;;;;;;11.70;6.40;;;;;;;15.66;82.78;100062.60;112273;1206;22459;-58
2021/08/29 08:10:23;;;;;;;14.70;5.60;;;;;;;15.72;82.64;100064.05;111723;1206;24299;-58
2021/08/29 08:12:54;;;;;;;14.50;6.40;;;;;;;15.81;82.82;100064.46;111516;1205;24083;-57
2021/08/29 08:15:26;;;;;;;14.80;6.20;;;;;;;15.90;82.41;100066.06;111677;1204;22774;-58
2021/08/29 08:17:57;;;;;;;15.20;5.90;;;;;;;15.96;82.51;100065.67;111618;1203;22460;-58
2021/08/29 08:20:28;;;;;;;16.10;5.50;;;;;;;16.04;82.11;100068.23;111534;1202;25238;-58
2021/08/29 08:22:58;;;;;;;13.30;5.60;;;;;;;16.10;81.87;100069.79;111590;1203;25074;-59
2021/08/29 08:25:30;;;;;;;11.50;5.60;;;;;;;16.17;82.09;100070.45;111546;1203;23927;-57
2021/08/29 08:28:01;;;;;;;13.70;6.00;;;;;;;16.23;81.65;100068.98;111590;1202;25106;-58
2021/08/29 08:30:31;;;;;;;14.50;5.60;;;;;;;16.29;81.39;100069.71;111887;1202;22452;-58
2021/08/29 08:33:03;;;;;;;17.50;5.50;;;;;;;16.32;80.97;100070.36;111607;1202;25169;-58
2021/08/29 08:35:35;;;;;;;13.90;5.70;;;;;;;16.37;80.95;100064.69;111705;1202;22477;-59
2021/08/29 08:38:07;;;;;;;12.90;5.80;;;;;;;16.43;80.87;100066.95;111668;1203;22496;-57
2021/08/29 08:40:43;;;;;;;13.50;5.30;;;;;;;16.46;80.85;100066.25;111659;1202;22459;-56
2021/08/29 08:43:25;;;;;;;;;;;;;;;;;;;;;
2021/08/29 08:45:56;;;;;;;10.10;4.30;;;;;;;16.59;80.11;100060.08;111502;1202;23880;-57
2021/08/29 08:48:30;;;;;;;14.90;5.40;;;;;;;16.66;80.19;100066.70;111569;1202;24103;-55
2021/08/29 08:51:02;;;;;;;12.40;4.70;;;;;;;16.73;79.69;100063.66;111578;1202;22439;-56
2021/08/29 08:53:37;;;;;;;14.00;4.30;;;;;;;16.77;79.51;100062.19;111629;1202;23068;-56
2021/08/29 08:56:09;;;;;;;13.50;4.90;;;;;;;16.81;79.53;100061.59;111693;1202;22461;-58
2021/08/29 08:58:44;;;;;;;12.80;4.80;;;;;;;16.88;79.70;100063.56;111622;1202;22464;-58
2021/08/29 09:01:16;;;;;;;11.10;4.70;;;;;;;16.97;79.40;100057.08;111654;1202;25288;-58
2021/08/29 09:03:49;;;;;;;12.60;4.40;;;;;;;17.09;79.58;100060.18;111659;1202;22461;-57
2021/08/29 09:06:20;;;;;;;12.60;5.20;;;;;;;17.22;78.96;100058.40;111769;1202;22422;-58
2021/08/29 09:08:51;;;;;;;12.00;4.40;;;;;;;17.31;78.86;100054.45;111710;1195;22440;-57
2021/08/29 09:11:22;;;;;;;11.70;4.50;;;;;;;17.40;78.49;100050.40;111631;1205;22454;-57
2021/08/29 09:13:57;;;;;;;11.70;4.40;;;;;;;17.49;78.54;100050.11;111723;1206;22832;-57
2021/08/29 09:16:30;;;;;;;10.60;4.50;;;;;;;17.60;78.15;100051.02;111768;1206;24122;-58
2021/08/29 09:19:02;;;;;;;11.50;4.20;;;;;;;17.65;77.79;100047.85;111892;1206;23237;-57
2021/08/29 09:21:36;;;;;;;9.70;4.30;;;;;;;17.74;77.62;100050.67;111787;1202;24096;-59
2021/08/29 09:24:12;;;;;;;13.00;4.90;;;;;;;17.81;77.27;100043.86;111945;1203;25125;-60
2021/08/29 09:26:45;;;;;;;10.50;3.70;;;;;;;17.85;76.65;100040.05;111977;1202;25266;-57
2021/08/29 09:29:24;;;;;;;10.40;4.20;;;;;;;17.85;76.12;100036.15;111990;1202;22445;-58
2021/08/29 09:31:55;;;;;;;9.70;3.70;;;;;;;17.88;76.46;100039.04;111732;1203;22467;-57
2021/08/29 09:34:26;;;;;;;11.30;4.30;;;;;;;17.93;76.61;100036.71;111636;1203;22525;-58
2021/08/29 09:37:03;;;;;;;10.90;4.70;;;;;;;18.02;76.76;100039.00;111703;1204;22470;-59
2021/08/29 09:39:35;;;;;;;7.80;2.80;;;;;;;18.10;76.38;100038.93;111661;1202;22440;-59
2021/08/29 09:42:07;;;;;;;7.90;2.80;;;;;;;18.17;75.78;100041.28;111696;1206;24114;-59
2021/08/29 09:44:39;;;;;;;6.10;2.30;;;;;;;18.21;75.10;100042.50;111598;1206;22517;-57
2021/08/29 09:47:13;;;;;;;7.70;2.20;;;;;;;18.27;75.00;100036.09;111732;1202;22452;-58
2021/08/29 09:49:51;;;;;;;7.20;2.30;;;;;;;18.32;74.77;100038.63;111867;1206;22455;-57
2021/08/29 09:52:31;;;;;;;6.20;2.20;;;;;;;18.37;74.32;100038.27;111749;1200;25132;-59
2021/08/29 09:55:02;;;;;;;7.70;2.30;;;;;;;18.41;74.19;100037.63;111689;1204;24105;-59
2021/08/29 09:57:35;;;;;;;8.20;2.10;;;;;;;18.47;73.72;100037.77;111810;1202;22562;-59
2021/08/29 10:00:10;;;;;;;7.20;1.70;;;;;;;18.51;73.39;100038.94;111678;1203;22614;-58
2021/08/29 10:02:41;;;;;;;8.90;2.10;;;;;;;18.58;73.59;100037.94;111702;1203;22562;-59
2021/08/29 10:05:17;;;;;;;6.80;2.00;;;;;;;18.66;73.27;100038.95;111687;1204;22484;-57
2021/08/29 10:08:09;;;;;;;7.50;1.70;;;;;;;18.73;72.26;100037.48;111781;1202;22454;-58
2021/08/29 10:10:44;;;;;;;6.60;1.70;;;;;;;18.75;71.30;100038.43;112079;1206;23351;-60
2021/08/29 10:13:16;;;;;;;6.70;1.70;;;;;;;18.75;71.51;100031.73;112039;1201;22442;-58
2021/08/29 10:15:50;;;;;;;5.40;1.70;;;;;;;18.78;71.19;100038.77;112070;1202;22562;-59
2021/08/29 10:18:22;;;;;;;5.70;1.90;;;;;;;18.85;71.35;100034.14;111848;1204;25058;-58
2021/08/29 10:20:53;;;;;;;7.70;1.80;;;;;;;18.95;71.49;100032.61;111717;1203;24465;-57
2021/08/29 10:23:25;;;;;;;8.90;1.20;;;;;;;19.04;70.23;100032.91;111698;1202;25210;-60
2021/08/29 10:25:58;;;;;;;5.80;1.30;;;;;;;19.06;70.31;100035.65;111718;1203;22716;-56
2021/08/29 10:28:37;;;;;;;4.70;1.30;;;;;;;19.14;70.06;100029.02;112072;1204;22459;-57
2021/08/29 10:31:16;;;;;;;3.50;1.10;;;;;;;19.22;69.92;100031.38;111647;1202;23036;-57
2021/08/29 10:33:52;;;;;;;5.10;1.20;;;;;;;19.29;69.27;100028.31;111709;1202;25209;-59
2021/08/29 10:36:24;;;;;;;5.20;1.20;;;;;;;19.29;69.08;100026.39;111676;1202;22492;-59
2021/08/29 10:38:55;;;;;;;5.50;1.20;;;;;;;19.31;68.78;100025.34;111650;1202;22456;-59
2021/08/29 10:41:29;;;;;;;5.20;1.40;;;;;;;19.37;68.85;100022.11;111617;1202;26258;-57
2021/08/29 10:44:00;;;;;;;5.60;1.60;;;;;;;19.34;68.50;100020.30;111632;1202;24251;-58
2021/08/29 10:46:37;;;;;;;6.00;1.70;;;;;;;19.28;68.66;100014.88;111599;1206;25067;-57
2021/08/29 10:49:08;;;;;;;7.40;1.90;;;;;;;19.28;68.74;100009.73;111664;1203;24080;-58
2021/08/29 10:51:39;;;;;;;6.80;2.10;;;;;;;19.27;67.99;100011.35;111705;1202;24223;-58
2021/08/29 10:54:15;;;;;;;6.50;1.90;;;;;;;19.26;68.40;100010.63;111855;1202;25308;-59
2021/08/29 10:56:48;;;;;;;6.60;1.60;;;;;;;19.25;68.12;100008.41;111780;1202;22562;-59
2021/08/29 10:59:27;;;;;;;5.60;1.70;;;;;;;19.22;68.16;100008.56;111815;1202;25475;-58
2021/08/29 11:02:18;;;;;;;6.80;1.50;;;;;;;19.22;68.06;100007.54;111737;1206;22451;-59
2021/08/29 11:05:02;;;;;;;;;;;;;;;;;;;;;
2021/08/29 11:07:48;;;;;;;5.40;1.70;;;;;;;19.11;67.12;100003.65;111636;1203;22452;-58
2021/08/29 11:10:45;;;;;;;6.90;1.70;;;;;;;19.06;67.22;100006.94;111621;1202;24219;-59
2021/08/29 11:13:41;;;;;;;5.60;1.50;;;;;;;19.00;66.65;100007.36;111887;1202;22447;-58
2021/08/29 11:16:28;;;;;;;4.60;1.30;;;;;;;18.88;66.76;100006.05;111902;1202;22440;-58
2021/08/29 11:19:16;;;;;;;4.70;1.60;;;;;;;18.81;67.08;100001.46;112202;1205;22448;-59
2021/08/29 11:22:14;;;;;;;7.00;1.40;;;;;;;18.79;66.59;99999.64;112018;1202;22442;-61
2021/08/29 11:25:03;;;;;;;4.90;1.30;;;;;;;18.71;66.55;100002.54;112001;1203;25157;-60
2021/08/29 11:27:53;;;;;;;5.00;1.40;;;;;;;18.64;66.50;100004.13;111889;1202;25058;-61
2021/08/29 11:30:27;;;;;;;4.70;1.30;;;;;;;18.61;66.79;100001.45;111761;1202;22439;-59
2021/08/29 11:33:04;;;;;;;6.20;1.20;;;;;;;18.64;66.75;100003.72;111970;1203;24071;-59
2021/08/29 11:35:39;;;;;;;5.50;1.30;;;;;;;18.60;66.89;100005.52;111833;1202;24085;-59
2021/08/29 11:38:13;;;;;;;4.00;1.20;;;;;;;18.54;66.49;100002.08;111771;1205;23154;-58
2021/08/29 11:41:00;;;;;;;4.80;1.20;;;;;;;18.51;67.18;99995.45;111873;1204;22574;-58
2021/08/29 11:43:42;;;;;;;6.40;1.60;;;;;;;18.57;67.49;99993.91;112100;1202;22453;-60